createdAt,value
2022-10-07T00:01:03.912Z,5.90
2022-10-07T00:03:31.706Z,4.97
2022-10-07T00:06:16.248Z,5.43
2022-10-07T00:08:49.247Z,6.75
2022-10-07T00:11:23.171Z,7.20
2022-10-07T00:14:12.539Z,4.22
2022-10-07T00:16:42.085Z,5.15
2022-10-07T00:19:12.857Z,7.80
2022-10-07T00:21:40.852Z,8.65
2022-10-07T00:24:08.842Z,6.38
2022-10-07T00:26:37.365Z,9.52
2022-10-07T00:29:07.173Z,8.18
2022-10-07T00:31:36.999Z,7.55
2022-10-07T00:34:04.980Z,6.03
2022-10-07T00:36:34.968Z,6.05
2022-10-07T00:39:08.350Z,6.82
2022-10-07T00:41:43.620Z,7.78
2022-10-07T00:44:32.593Z,11.15
2022-10-07T00:47:04.098Z,8.38
2022-10-07T00:49:41.463Z,8.68
2022-10-07T00:52:09.258Z,8.90
2022-10-07T00:54:38.254Z,11.27
2022-10-07T00:57:06.115Z,9.05
2022-10-07T00:59:33.900Z,8.20
2022-10-07T01:02:01.249Z,6.82
2022-10-07T01:04:28.648Z,6.15
2022-10-07T01:06:56.377Z,4.72
2022-10-07T01:09:24.066Z,7.30
2022-10-07T01:12:27.151Z,3.80
2022-10-07T01:15:20.219Z,7.55
2022-10-07T01:18:04.468Z,9.95
2022-10-07T01:20:49.926Z,6.43
2022-10-07T01:23:42.166Z,4.68
2022-10-07T01:26:15.564Z,3.45
2022-10-07T01:29:05.140Z,5.82
2022-10-07T01:32:08.353Z,6.00
2022-10-07T01:34:37.440Z,4.35
2022-10-07T01:37:09.277Z,10.70
2022-10-07T01:39:50.780Z,4.80
2022-10-07T01:42:20.292Z,9.35
2022-10-07T01:44:53.051Z,8.20
2022-10-07T01:47:20.621Z,4.72
2022-10-07T01:49:51.241Z,3.92
2022-10-07T01:52:43.517Z,7.13
2022-10-07T01:55:11.411Z,5.82
2022-10-07T01:57:59.332Z,5.38
2022-10-07T02:00:28.011Z,5.88
2022-10-07T02:02:55.381Z,8.70
2022-10-07T02:05:37.073Z,3.67
2022-10-07T02:08:31.737Z,6.38
2022-10-07T02:11:12.352Z,6.70
2022-10-07T02:13:51.146Z,6.45
2022-10-07T02:16:54.887Z,3.70
2022-10-07T02:19:26.208Z,6.57
2022-10-07T02:21:57.528Z,4.55
2022-10-07T02:24:28.404Z,4.50
2022-10-07T02:27:00.006Z,5.18
2022-10-07T02:29:31.522Z,6.20
2022-10-07T02:32:02.589Z,3.70
2022-10-07T02:34:33.439Z,4.90
2022-10-07T02:37:11.987Z,3.47
2022-10-07T02:39:39.399Z,4.18
2022-10-07T02:42:17.033Z,6.38
2022-10-07T02:44:53.131Z,5.32
2022-10-07T02:47:29.331Z,3.47
2022-10-07T02:50:01.601Z,4.13
2022-10-07T02:52:32.193Z,8.02
2022-10-07T02:55:06.793Z,3.30
2022-10-07T02:57:38.435Z,5.13
2022-10-07T03:00:11.096Z,4.47
2022-10-07T03:02:57.426Z,4.95
2022-10-07T03:05:35.478Z,4.78
2022-10-07T03:08:10.095Z,4.35
2022-10-07T03:10:39.005Z,9.95
2022-10-07T03:13:09.005Z,8.73
2022-10-07T03:15:42.609Z,5.90
2022-10-07T03:18:28.561Z,6.38
2022-10-07T03:21:24.460Z,9.77
2022-10-07T03:23:55.668Z,6.70
2022-10-07T03:26:26.927Z,9.00
2022-10-07T03:28:55.507Z,6.05
2022-10-07T03:31:24.468Z,5.15
2022-10-07T03:33:57.173Z,6.65
2022-10-07T03:36:25.588Z,4.38
2022-10-07T03:38:55.787Z,8.52
2022-10-07T03:41:26.913Z,7.78
2022-10-07T03:43:59.419Z,4.93
2022-10-07T03:46:28.290Z,9.13
2022-10-07T03:48:55.693Z,7.70
2022-10-07T03:51:24.128Z,7.18
2022-10-07T03:53:54.779Z,10.73
2022-10-07T03:56:22.230Z,10.18
2022-10-07T03:58:49.713Z,9.27
2022-10-07T04:01:17.607Z,7.43
2022-10-07T04:03:51.158Z,11.15
2022-10-07T04:06:18.943Z,5.93
2022-10-07T04:08:46.808Z,5.43
2022-10-07T04:11:14.136Z,10.30
2022-10-07T04:13:44.560Z,7.38
2022-10-07T04:16:13.501Z,7.57
2022-10-07T04:18:45.197Z,7.22
2022-10-07T04:21:13.036Z,7.30
2022-10-07T04:23:42.621Z,8.98
2022-10-07T04:26:12.133Z,6.28
2022-10-07T04:28:44.129Z,7.03
2022-10-07T04:31:15.685Z,6.70
2022-10-07T04:33:46.703Z,5.95
2022-10-07T04:36:19.658Z,10.95
2022-10-07T04:38:56.938Z,5.03
2022-10-07T04:41:28.457Z,5.43
2022-10-07T04:43:58.049Z,5.70
2022-10-07T04:46:29.060Z,5.07
2022-10-07T04:49:02.225Z,14.85
2022-10-07T04:51:32.394Z,4.65
2022-10-07T04:54:01.547Z,7.63
2022-10-07T04:56:35.049Z,8.82
2022-10-07T04:59:06.065Z,8.65
2022-10-07T05:01:33.991Z,10.13
2022-10-07T05:04:01.353Z,7.68
2022-10-07T05:06:29.309Z,7.55
2022-10-07T05:08:56.911Z,8.63
2022-10-07T05:11:26.213Z,11.77
2022-10-07T05:14:02.568Z,11.18
2022-10-07T05:16:32.149Z,11.52
2022-10-07T05:18:59.893Z,14.60
2022-10-07T05:21:28.922Z,11.50
2022-10-07T05:23:58.392Z,15.10
2022-10-07T05:26:31.115Z,13.15
2022-10-07T05:29:01.480Z,25.48
2022-10-07T05:31:36.080Z,19.90
2022-10-07T05:34:04.895Z,30.05
2022-10-07T05:36:33.086Z,26.67
2022-10-07T05:39:01.461Z,24.17
2022-10-07T05:41:45.212Z,30.50
2022-10-07T05:44:15.958Z,25.48
2022-10-07T05:46:43.728Z,35.20
2022-10-07T05:49:12.743Z,19.75
2022-10-07T05:51:41.586Z,26.15
2022-10-07T05:54:08.955Z,17.27
2022-10-07T05:56:40.629Z,17.85
2022-10-07T05:59:09.419Z,17.13
2022-10-07T06:01:43.008Z,15.82
2022-10-07T06:04:15.486Z,17.63
2022-10-07T06:06:47.565Z,13.85
2022-10-07T06:09:33.433Z,19.23
2022-10-07T06:12:23.832Z,16.27
2022-10-07T06:14:53.151Z,10.38
2022-10-07T06:17:20.577Z,9.80
2022-10-07T06:19:49.963Z,14.38
2022-10-07T06:22:19.027Z,12.88
2022-10-07T06:24:47.210Z,16.10
2022-10-07T06:27:14.871Z,11.50
2022-10-07T06:29:43.412Z,8.43
2022-10-07T06:32:10.844Z,17.30
2022-10-07T06:34:39.645Z,7.95
2022-10-07T06:37:06.914Z,10.82
2022-10-07T06:39:34.280Z,7.00
2022-10-07T06:42:02.032Z,9.65
2022-10-07T06:44:38.612Z,11.48
2022-10-07T06:47:11.629Z,9.88
2022-10-07T06:49:41.994Z,6.70
2022-10-07T06:52:09.285Z,8.77
2022-10-07T06:54:37.498Z,9.70
2022-10-07T06:57:20.468Z,6.03
2022-10-07T06:59:55.257Z,11.95
2022-10-07T07:02:25.960Z,8.25
2022-10-07T07:04:57.817Z,10.35
2022-10-07T07:07:26.693Z,8.07
2022-10-07T07:09:54.699Z,11.98
2022-10-07T07:12:25.610Z,8.07
2022-10-07T07:14:55.469Z,8.43
2022-10-07T07:17:22.926Z,16.45
2022-10-07T07:19:50.469Z,12.02
2022-10-07T07:22:18.958Z,17.90
2022-10-07T07:24:46.643Z,20.88
2022-10-07T07:27:15.425Z,30.05
2022-10-07T07:29:44.054Z,24.70
2022-10-07T07:32:12.590Z,35.72
2022-10-07T07:34:42.905Z,27.52
2022-10-07T07:37:14.640Z,26.80
2022-10-07T07:39:47.085Z,20.70
2022-10-07T07:42:17.001Z,27.17
2022-10-07T07:44:44.419Z,28.83
2022-10-07T07:47:17.302Z,25.52
2022-10-07T07:49:46.306Z,29.75
2022-10-07T07:52:20.700Z,34.55
2022-10-07T07:54:48.902Z,25.80
2022-10-07T07:57:16.231Z,26.73
2022-10-07T07:59:43.649Z,33.67
2022-10-07T08:02:12.876Z,20.65
2022-10-07T08:04:43.744Z,28.17
2022-10-07T08:07:13.706Z,16.05
2022-10-07T08:09:44.274Z,21.85
2022-10-07T08:12:14.799Z,24.58
2022-10-07T08:14:43.519Z,34.40
2022-10-07T08:17:12.783Z,25.05
2022-10-07T08:19:40.534Z,21.67
2022-10-07T08:22:09.136Z,21.65
2022-10-07T08:24:37.897Z,25.35
2022-10-07T08:27:05.675Z,26.73
2022-10-07T08:29:33.155Z,20.35
2022-10-07T08:32:00.626Z,22.08
2022-10-07T08:34:27.867Z,29.63
2022-10-07T08:36:56.416Z,17.00
2022-10-07T08:39:24.937Z,19.40
2022-10-07T08:41:55.116Z,13.43
2022-10-07T08:44:36.248Z,9.95
2022-10-07T08:47:20.556Z,13.70
2022-10-07T08:49:47.826Z,11.80
2022-10-07T08:52:26.045Z,10.45
2022-10-07T08:54:53.781Z,13.88
2022-10-07T08:57:55.587Z,13.25
2022-10-07T09:00:25.172Z,13.27
2022-10-07T09:03:10.667Z,15.98
2022-10-07T09:05:41.436Z,8.98
2022-10-07T09:08:24.649Z,9.95
2022-10-07T09:10:53.666Z,14.55
2022-10-07T09:13:25.035Z,6.85
2022-10-07T09:16:12.215Z,10.45
2022-10-07T09:18:45.985Z,10.18
2022-10-07T09:21:19.168Z,9.10
2022-10-07T09:23:47.368Z,14.57
2022-10-07T09:26:17.017Z,18.88
2022-10-07T09:28:44.506Z,16.17
2022-10-07T09:31:15.384Z,10.50
2022-10-07T09:33:46.002Z,12.23
2022-10-07T09:36:19.283Z,10.00
2022-10-07T09:38:52.724Z,11.35
2022-10-07T09:41:35.659Z,3.58
2022-10-07T09:44:13.870Z,8.43
2022-10-07T09:46:54.537Z,6.35
2022-10-07T09:49:28.092Z,10.02
2022-10-07T09:52:17.113Z,11.30
2022-10-07T09:54:47.018Z,10.15
2022-10-07T09:57:27.848Z,9.18
2022-10-07T10:00:13.261Z,7.18
2022-10-07T10:02:46.578Z,6.88
2022-10-07T10:05:24.294Z,12.52
2022-10-07T10:07:58.204Z,9.63
2022-10-07T10:10:28.831Z,7.15
2022-10-07T10:12:58.476Z,5.40
2022-10-07T10:15:43.228Z,5.63
2022-10-07T10:18:33.783Z,10.75
2022-10-07T10:21:30.457Z,5.80
2022-10-07T10:24:06.346Z,5.03
2022-10-07T10:26:44.839Z,8.43
2022-10-07T10:29:35.657Z,10.00
2022-10-07T10:32:03.001Z,8.32
2022-10-07T10:34:39.095Z,10.80
2022-10-07T10:37:20.575Z,11.88
2022-10-07T10:40:09.143Z,11.30
2022-10-07T10:43:16.641Z,6.25
2022-10-07T10:46:26.960Z,9.25
2022-10-07T10:49:02.889Z,7.88
2022-10-07T10:51:59.665Z,9.07
2022-10-07T10:54:44.894Z,15.20
2022-10-07T10:57:35.578Z,12.25
2022-10-07T11:00:23.458Z,5.95
2022-10-07T11:03:05.836Z,8.90
2022-10-07T11:05:37.190Z,13.13
2022-10-07T11:08:22.285Z,9.70
2022-10-07T11:11:20.437Z,11.02
2022-10-07T11:13:58.871Z,6.07
2022-10-07T11:16:36.841Z,5.18
2022-10-07T11:19:16.812Z,9.55
2022-10-07T11:21:58.195Z,12.40
2022-10-07T11:24:43.817Z,10.13
2022-10-07T11:27:25.099Z,8.35
2022-10-07T11:29:57.612Z,10.95
2022-10-07T11:32:24.758Z,12.93
2022-10-07T11:35:20.790Z,8.95
2022-10-07T11:37:58.383Z,11.13
2022-10-07T11:40:31.539Z,11.30
2022-10-07T11:43:08.568Z,12.80
2022-10-07T11:45:50.135Z,5.82
2022-10-07T11:48:27.377Z,14.93
2022-10-07T11:51:04.544Z,13.60
2022-10-07T11:53:37.582Z,10.60
2022-10-07T11:56:16.677Z,13.02
2022-10-07T11:58:44.937Z,8.63
2022-10-07T12:01:48.492Z,8.48
2022-10-07T12:04:22.231Z,13.75
2022-10-07T12:07:27.277Z,15.77
2022-10-07T12:10:07.167Z,13.07
2022-10-07T12:12:46.686Z,9.85
2022-10-07T12:15:29.692Z,10.18
2022-10-07T12:18:06.285Z,12.63
2022-10-07T12:20:37.320Z,9.25
2022-10-07T12:23:22.675Z,8.35
2022-10-07T12:26:31.040Z,7.25
2022-10-07T12:28:59.067Z,7.68
2022-10-07T12:31:26.398Z,5.88
2022-10-07T12:33:57.969Z,5.10
2022-10-07T12:36:31.618Z,8.48
2022-10-07T12:39:02.655Z,9.57
2022-10-07T12:41:43.425Z,7.70
2022-10-07T12:44:31.800Z,10.77
2022-10-07T12:47:05.974Z,8.25
2022-10-07T12:49:51.555Z,6.93
2022-10-07T12:55:11.248Z,12.23
2022-10-07T12:57:43.366Z,7.82
2022-10-07T13:00:24.756Z,15.60
2022-10-07T13:03:36.446Z,6.60
2022-10-07T13:06:28.861Z,8.88
2022-10-07T13:09:37.736Z,6.90
2022-10-07T13:12:27.864Z,6.45
2022-10-07T13:15:00.616Z,7.32
2022-10-07T13:17:28.067Z,7.97
2022-10-07T13:20:33.570Z,4.38
2022-10-07T13:23:30.953Z,12.05
2022-10-07T13:26:01.829Z,9.60
2022-10-07T13:28:53.716Z,10.15
2022-10-07T13:31:26.176Z,8.38
2022-10-07T13:33:55.289Z,9.10
2022-10-07T13:36:32.734Z,5.10
2022-10-07T13:39:20.961Z,8.05
2022-10-07T13:41:51.052Z,5.53
2022-10-07T13:44:21.086Z,5.20
2022-10-07T13:47:10.322Z,5.32
2022-10-07T13:49:43.829Z,6.20
2022-10-07T13:52:37.345Z,4.40
2022-10-07T13:55:33.359Z,5.03
2022-10-07T13:58:04.722Z,10.23
2022-10-07T14:00:33.911Z,11.63
2022-10-07T14:03:02.206Z,7.80
2022-10-07T14:05:32.881Z,3.35
2022-10-07T14:08:11.400Z,5.10
2022-10-07T14:11:10.659Z,12.05
2022-10-07T14:13:38.141Z,6.78
2022-10-07T14:16:05.760Z,10.15
2022-10-07T14:18:33.202Z,8.32
2022-10-07T14:21:18.251Z,13.23
2022-10-07T14:23:47.294Z,11.70
2022-10-07T14:26:16.573Z,6.07
2022-10-07T14:28:44.658Z,6.80
2022-10-07T14:31:37.902Z,11.18
2022-10-07T14:34:35.333Z,11.88
2022-10-07T14:37:28.492Z,7.07
2022-10-07T14:39:59.130Z,9.50
2022-10-07T14:42:36.370Z,9.45
2022-10-07T14:45:08.573Z,9.02
2022-10-07T14:47:38.367Z,6.97
2022-10-07T14:50:06.360Z,10.35
2022-10-07T14:52:47.983Z,8.70
2022-10-07T14:55:28.346Z,11.60
2022-10-07T14:57:56.187Z,9.35
2022-10-07T15:00:25.856Z,13.52
2022-10-07T15:02:58.029Z,7.82
2022-10-07T15:05:26.707Z,7.53
2022-10-07T15:07:54.196Z,9.48
2022-10-07T15:10:23.989Z,7.40
2022-10-07T15:12:51.670Z,5.70
2022-10-07T15:15:19.663Z,7.28
2022-10-07T15:17:48.167Z,8.43
2022-10-07T15:20:17.361Z,11.15
2022-10-07T15:22:46.039Z,9.93
2022-10-07T15:25:15.674Z,9.02
2022-10-07T15:27:43.346Z,9.38
2022-10-07T15:30:11.472Z,7.68
2022-10-07T15:32:38.827Z,13.68
2022-10-07T15:35:06.713Z,12.10
2022-10-07T15:37:34.337Z,4.20
2022-10-07T15:40:01.735Z,7.03
2022-10-07T15:42:29.139Z,10.57
2022-10-07T15:44:56.577Z,13.30
2022-10-07T15:47:24.318Z,14.40
2022-10-07T15:49:51.702Z,9.27
2022-10-07T15:52:21.597Z,8.30
2022-10-07T15:54:49.012Z,10.20
2022-10-07T15:57:16.363Z,11.27
2022-10-07T15:59:43.768Z,9.15
2022-10-07T16:02:16.697Z,10.30
2022-10-07T16:04:47.424Z,9.88
2022-10-07T16:07:16.141Z,11.05
2022-10-07T16:09:43.440Z,9.93
2022-10-07T16:12:10.871Z,15.82
2022-10-07T16:14:39.187Z,13.80
2022-10-07T16:17:09.545Z,13.52
2022-10-07T16:19:36.896Z,14.57
2022-10-07T16:22:04.846Z,11.02
2022-10-07T16:24:35.493Z,14.60
2022-10-07T16:27:03.400Z,21.15
2022-10-07T16:29:50.174Z,16.65
2022-10-07T16:32:17.774Z,23.10
2022-10-07T16:34:45.502Z,16.30
2022-10-07T16:37:13.317Z,21.85
2022-10-07T16:39:40.760Z,13.20
2022-10-07T16:42:15.798Z,18.63
2022-10-07T16:44:46.238Z,14.52
2022-10-07T16:47:15.868Z,15.48
2022-10-07T16:49:43.344Z,21.42
2022-10-07T16:52:13.779Z,17.15
2022-10-07T16:54:41.503Z,18.25
2022-10-07T16:57:09.232Z,20.30
2022-10-07T16:59:36.647Z,16.05
2022-10-07T17:02:06.538Z,19.65
2022-10-07T17:04:33.934Z,22.55
2022-10-07T17:07:02.273Z,16.98
2022-10-07T17:09:29.666Z,20.52
2022-10-07T17:11:57.573Z,15.63
2022-10-07T17:14:25.338Z,19.33
2022-10-07T17:16:56.902Z,18.52
2022-10-07T17:19:27.214Z,21.05
2022-10-07T17:21:56.622Z,15.75
2022-10-07T17:24:24.297Z,25.00
2022-10-07T17:26:53.249Z,21.48
2022-10-07T17:29:26.979Z,19.95
2022-10-07T17:31:54.801Z,24.70
2022-10-07T17:34:24.053Z,17.13
2022-10-07T17:36:52.034Z,18.88
2022-10-07T17:39:19.689Z,18.13
2022-10-07T17:41:47.481Z,18.23
2022-10-07T17:44:15.650Z,16.50
2022-10-07T17:46:43.424Z,21.42
2022-10-07T17:49:13.656Z,30.30
2022-10-07T17:51:43.445Z,22.75
2022-10-07T17:54:12.789Z,22.38
2022-10-07T17:56:40.539Z,24.98
2022-10-07T17:59:08.034Z,20.40
2022-10-07T18:01:36.547Z,28.38
2022-10-07T18:04:10.932Z,20.63
2022-10-07T18:06:39.844Z,25.70
2022-10-07T18:09:15.291Z,20.45
2022-10-07T18:14:51.104Z,28.58
2022-10-07T18:17:21.026Z,19.70
2022-10-07T18:19:48.584Z,21.63
2022-10-07T18:22:15.980Z,23.48
2022-10-07T18:24:43.406Z,16.45
2022-10-07T18:27:10.812Z,19.08
2022-10-07T18:29:38.436Z,19.25
2022-10-07T18:32:07.779Z,16.80
2022-10-07T18:34:35.394Z,19.88
2022-10-07T18:37:03.029Z,16.20
2022-10-07T18:39:30.411Z,19.55
2022-10-07T18:41:58.515Z,17.40
2022-10-07T18:44:26.545Z,21.83
2022-10-07T18:46:55.425Z,18.83
2022-10-07T18:49:23.500Z,15.77
2022-10-07T18:51:51.328Z,21.00
2022-10-07T18:54:19.856Z,15.43
2022-10-07T18:56:48.522Z,19.95
2022-10-07T18:59:16.512Z,10.48
2022-10-07T19:01:49.295Z,15.00
2022-10-07T19:04:17.500Z,14.38
2022-10-07T19:06:46.174Z,21.20
2022-10-07T19:09:20.305Z,16.08
2022-10-07T19:11:48.832Z,14.43
2022-10-07T19:14:17.267Z,12.73
2022-10-07T19:16:46.818Z,19.73
2022-10-07T19:19:17.370Z,16.80
2022-10-07T19:21:46.816Z,19.88
2022-10-07T19:24:15.959Z,15.43
2022-10-07T19:26:49.069Z,12.15
2022-10-07T19:29:18.222Z,15.00
2022-10-07T19:31:48.960Z,18.17
2022-10-07T19:34:21.144Z,14.82
2022-10-07T19:36:50.147Z,16.02
2022-10-07T19:39:22.478Z,14.02
2022-10-07T19:41:51.373Z,15.88
2022-10-07T19:44:19.563Z,11.90
2022-10-07T19:46:50.539Z,11.98
2022-10-07T19:49:18.005Z,19.42
2022-10-07T19:51:45.845Z,10.57
2022-10-07T19:54:13.403Z,18.50
2022-10-07T19:56:41.640Z,9.45
2022-10-07T19:59:11.935Z,12.73
2022-10-07T20:01:42.293Z,12.55
2022-10-07T20:04:14.527Z,13.23
2022-10-07T20:06:42.880Z,10.93
2022-10-07T20:09:13.467Z,16.05
2022-10-07T20:11:40.917Z,13.95
2022-10-07T20:14:10.196Z,21.42
2022-10-07T20:16:38.478Z,15.90
2022-10-07T20:19:08.247Z,19.88
2022-10-07T20:21:37.521Z,15.43
2022-10-07T20:24:07.044Z,12.77
2022-10-07T20:26:36.911Z,17.15
2022-10-07T20:29:05.683Z,12.30
2022-10-07T20:31:38.801Z,15.40
2022-10-07T20:34:07.683Z,16.20
2022-10-07T20:36:37.622Z,10.20
2022-10-07T20:39:27.436Z,10.65
2022-10-07T20:42:13.307Z,10.48
2022-10-07T20:44:40.719Z,13.00
2022-10-07T20:47:10.276Z,15.30
2022-10-07T20:49:41.631Z,14.05
2022-10-07T20:52:14.125Z,13.63
2022-10-07T20:54:41.625Z,10.25
2022-10-07T20:57:11.882Z,15.98
2022-10-07T20:59:40.161Z,14.02
2022-10-07T21:02:09.704Z,20.05
2022-10-07T21:04:37.243Z,12.95
2022-10-07T21:07:04.583Z,16.38
2022-10-07T21:09:36.648Z,18.83
2022-10-07T21:12:07.714Z,16.30
2022-10-07T21:14:35.771Z,13.15
2022-10-07T21:17:05.084Z,12.13
2022-10-07T21:19:32.907Z,15.60
2022-10-07T21:22:00.336Z,17.95
2022-10-07T21:24:28.382Z,22.83
2022-10-07T21:26:55.891Z,22.75
2022-10-07T21:29:23.261Z,20.92
2022-10-07T21:31:50.602Z,20.00
2022-10-07T21:34:17.984Z,19.80
2022-10-07T21:36:50.330Z,16.17
2022-10-07T21:39:19.046Z,19.95
2022-10-07T21:41:47.712Z,19.88
2022-10-07T21:44:15.246Z,18.30
2022-10-07T21:46:42.868Z,17.77
2022-10-07T21:49:10.255Z,17.15
2022-10-07T21:51:38.312Z,17.05
2022-10-07T21:54:06.095Z,21.20
2022-10-07T21:56:34.237Z,16.70
2022-10-07T21:59:04.573Z,19.48
2022-10-07T22:01:35.668Z,17.08
2022-10-07T22:04:16.476Z,22.30
2022-10-07T22:07:03.261Z,20.30
2022-10-07T22:09:31.468Z,21.83
2022-10-07T22:11:59.002Z,23.85
2022-10-07T22:14:27.916Z,18.52
2022-10-07T22:16:55.579Z,25.20
2022-10-07T22:19:23.255Z,17.83
2022-10-07T22:21:50.705Z,19.10
2022-10-07T22:24:18.205Z,14.15
2022-10-07T22:26:48.385Z,16.17
2022-10-07T22:29:19.496Z,18.45
2022-10-07T22:31:47.304Z,18.55
2022-10-07T22:34:34.394Z,21.05
2022-10-07T22:37:02.305Z,22.25
2022-10-07T22:39:30.657Z,14.80
2022-10-07T22:41:58.915Z,12.10
2022-10-07T22:44:28.367Z,17.83
2022-10-07T22:46:57.129Z,14.07
2022-10-07T22:49:28.800Z,13.93
2022-10-07T22:51:58.551Z,13.95
2022-10-07T22:54:26.501Z,15.68
2022-10-07T22:56:53.830Z,14.20
2022-10-07T22:59:21.498Z,10.07
2022-10-07T23:01:48.800Z,13.02
2022-10-07T23:04:16.230Z,14.25
2022-10-07T23:06:43.487Z,11.95
2022-10-07T23:09:11.039Z,12.32
2022-10-07T23:11:38.371Z,14.95
2022-10-07T23:14:05.922Z,14.18
2022-10-07T23:16:34.404Z,9.57
2022-10-07T23:19:02.007Z,12.50
2022-10-07T23:21:34.173Z,14.35
2022-10-07T23:24:07.329Z,8.25
2022-10-07T23:26:35.645Z,13.43
2022-10-07T23:29:03.605Z,8.90
2022-10-07T23:31:32.840Z,8.02
2022-10-07T23:34:02.064Z,11.73
2022-10-07T23:36:29.857Z,13.63
2022-10-07T23:39:00.007Z,7.07
2022-10-07T23:41:29.849Z,8.60
2022-10-07T23:43:59.847Z,7.53
2022-10-07T23:46:29.032Z,10.05
2022-10-07T23:48:56.460Z,7.00
2022-10-07T23:51:26.324Z,8.63
2022-10-07T23:53:55.999Z,12.35
2022-10-07T23:56:23.587Z,10.80
2022-10-07T23:58:51.059Z,6.47
